createdAt,value
2022-10-19T00:01:05.359Z,99631.97
2022-10-19T00:03:33.468Z,99645.03
2022-10-19T00:06:12.211Z,99643.34
2022-10-19T00:08:39.944Z,99638.00
2022-10-19T00:11:07.979Z,99631.97
2022-10-19T00:13:35.776Z,99633.59
2022-10-19T00:16:11.335Z,99639.03
2022-10-19T00:18:43.324Z,99647.78
2022-10-19T00:21:14.325Z,99647.53
2022-10-19T00:23:42.245Z,99649.28
2022-10-19T00:26:10.109Z,99635.25
2022-10-19T00:28:37.926Z,99653.38
2022-10-19T00:31:06.757Z,99655.22
2022-10-19T00:33:34.714Z,99658.19
2022-10-19T00:36:06.389Z,99652.19
2022-10-19T00:38:35.518Z,99639.31
2022-10-19T00:41:03.746Z,99649.81
2022-10-19T00:43:32.464Z,99639.22
2022-10-19T00:46:00.192Z,99646.13
2022-10-19T00:48:32.141Z,99639.66
2022-10-19T00:51:00.982Z,99642.25
2022-10-19T00:53:31.426Z,99649.63
2022-10-19T00:56:06.497Z,99643.22
2022-10-19T00:58:34.926Z,99634.88
2022-10-19T01:01:06.028Z,99636.69
2022-10-19T01:03:35.125Z,99637.28
2022-10-19T01:06:04.086Z,99640.44
2022-10-19T01:08:31.934Z,99640.19
2022-10-19T01:11:15.227Z,99637.53
2022-10-19T01:13:52.263Z,99639.72
2022-10-19T01:16:29.164Z,99644.66
2022-10-19T01:19:04.351Z,99644.78
2022-10-19T01:21:37.118Z,99642.44
2022-10-19T01:24:49.072Z,99642.25
2022-10-19T01:27:55.541Z,99637.28
2022-10-19T01:30:39.089Z,99635.09
2022-10-19T01:33:32.899Z,99634.84
2022-10-19T01:36:11.786Z,99622.47
2022-10-19T01:38:51.902Z,99619.31
2022-10-19T01:41:27.691Z,99613.88
2022-10-19T01:44:00.789Z,99613.22
2022-10-19T01:46:34.620Z,99613.19
2022-10-19T01:49:08.960Z,99604.78
2022-10-19T01:51:40.246Z,99611.31
2022-10-19T01:54:14.098Z,99606.44
2022-10-19T01:56:44.151Z,99609.81
2022-10-19T01:59:13.318Z,99607.25
2022-10-19T02:01:45.158Z,99601.31
2022-10-19T02:04:16.690Z,99600.34
2022-10-19T02:06:45.354Z,99597.09
2022-10-19T02:09:17.889Z,99593.06
2022-10-19T02:11:49.677Z,99590.66
2022-10-19T02:14:23.206Z,99589.09
2022-10-19T02:16:58.097Z,99587.78
2022-10-19T02:19:26.028Z,99586.78
2022-10-19T02:21:53.875Z,99585.81
2022-10-19T02:24:21.560Z,99587.38
2022-10-19T02:26:50.185Z,99584.66
2022-10-19T02:29:18.200Z,99569.31
2022-10-19T02:31:46.170Z,99574.16
2022-10-19T02:34:15.444Z,99575.44
2022-10-19T02:36:43.215Z,99577.41
2022-10-19T02:39:11.111Z,99561.09
2022-10-19T02:41:45.393Z,99575.50
2022-10-19T02:44:19.284Z,99568.81
2022-10-19T02:46:50.787Z,99569.56
2022-10-19T02:49:20.389Z,99568.72
2022-10-19T02:52:00.237Z,99568.91
2022-10-19T02:54:28.683Z,99568.41
2022-10-19T02:56:57.150Z,99566.34
2022-10-19T02:59:25.537Z,99562.66
2022-10-19T03:01:53.634Z,99553.44
2022-10-19T03:04:22.706Z,99565.34
2022-10-19T03:06:50.419Z,99561.06
2022-10-19T03:09:20.470Z,99554.47
2022-10-19T03:11:48.192Z,99552.50
2022-10-19T03:14:15.919Z,99550.53
2022-10-19T03:16:43.652Z,99551.13
2022-10-19T03:19:11.416Z,99554.03
2022-10-19T03:21:43.173Z,99544.84
2022-10-19T03:24:10.954Z,99544.66
2022-10-19T03:26:38.715Z,99541.84
2022-10-19T03:29:06.436Z,99540.94
2022-10-19T03:31:34.154Z,99534.75
2022-10-19T03:34:02.021Z,99537.22
2022-10-19T03:36:31.955Z,99541.41
2022-10-19T03:39:03.138Z,99541.09
2022-10-19T03:41:33.211Z,99541.63
2022-10-19T03:46:34.788Z,99537.78
2022-10-19T03:49:05.403Z,99531.59
2022-10-19T03:54:06.922Z,99519.84
2022-10-19T03:56:36.147Z,99525.44
2022-10-19T03:59:06.001Z,99528.56
2022-10-19T04:01:35.297Z,99534.38
2022-10-19T04:04:05.729Z,99534.66
2022-10-19T04:06:36.394Z,99536.31
2022-10-19T04:09:06.992Z,99530.97
2022-10-19T04:11:37.177Z,99535.22
2022-10-19T04:16:40.690Z,99526.63
2022-10-19T04:19:09.559Z,99530.34
2022-10-19T04:21:40.403Z,99533.56
2022-10-19T04:24:12.311Z,99531.13
2022-10-19T04:26:42.191Z,99539.84
2022-10-19T04:29:11.063Z,99538.78
2022-10-19T04:31:41.890Z,99532.34
2022-10-19T04:34:10.129Z,99531.16
2022-10-19T04:36:38.102Z,99539.03
2022-10-19T04:39:09.972Z,99542.53
2022-10-19T04:41:39.348Z,99547.66
2022-10-19T04:44:07.487Z,99546.94
2022-10-19T04:46:35.637Z,99544.03
2022-10-19T04:49:04.304Z,99546.25
2022-10-19T04:51:32.201Z,99539.94
2022-10-19T04:54:00.106Z,99540.41
2022-10-19T04:56:30.787Z,99532.88
2022-10-19T04:58:59.651Z,99533.63
2022-10-19T05:01:30.857Z,99536.53
2022-10-19T05:04:00.904Z,99534.09
2022-10-19T05:06:29.225Z,99532.75
2022-10-19T05:08:57.402Z,99534.09
2022-10-19T05:11:25.735Z,99534.09
2022-10-19T05:13:54.967Z,99535.28
2022-10-19T05:16:24.377Z,99534.22
2022-10-19T05:18:55.977Z,99531.44
2022-10-19T05:21:23.750Z,99534.56
2022-10-19T05:23:53.199Z,99534.34
2022-10-19T05:26:23.422Z,99528.53
2022-10-19T05:28:56.192Z,99534.50
2022-10-19T05:31:27.897Z,99531.59
2022-10-19T05:33:57.205Z,99530.97
2022-10-19T05:36:27.550Z,99537.50
2022-10-19T05:38:57.091Z,99530.50
2022-10-19T05:41:26.347Z,99532.41
2022-10-19T05:43:55.757Z,99532.31
2022-10-19T05:46:28.155Z,99533.72
2022-10-19T05:48:57.150Z,99537.69
2022-10-19T05:51:26.045Z,99529.50
2022-10-19T05:53:54.366Z,99534.97
2022-10-19T05:56:24.213Z,99534.63
2022-10-19T05:58:52.697Z,99535.44
2022-10-19T06:01:21.057Z,99530.72
2022-10-19T06:03:53.555Z,99539.66
2022-10-19T06:06:21.493Z,99544.84
2022-10-19T06:08:49.968Z,99552.44
2022-10-19T06:11:19.679Z,99551.94
2022-10-19T06:13:50.341Z,99552.22
2022-10-19T06:16:19.798Z,99545.88
2022-10-19T06:18:48.053Z,99549.91
2022-10-19T06:21:22.648Z,99547.63
2022-10-19T06:23:51.605Z,99545.56
2022-10-19T06:26:19.570Z,99548.03
2022-10-19T06:28:47.653Z,99556.16
2022-10-19T06:31:15.660Z,99547.44
2022-10-19T06:33:49.229Z,99552.97
2022-10-19T06:36:23.129Z,99555.53
2022-10-19T06:38:51.116Z,99560.25
2022-10-19T06:41:18.861Z,99555.44
2022-10-19T06:43:51.026Z,99553.47
2022-10-19T06:46:23.101Z,99559.84
2022-10-19T06:48:52.380Z,99556.44
2022-10-19T06:51:22.137Z,99559.69
2022-10-19T06:53:54.300Z,99566.56
2022-10-19T06:56:25.468Z,99558.94
2022-10-19T06:58:53.460Z,99556.81
2022-10-19T07:01:21.607Z,99554.22
2022-10-19T07:03:51.693Z,99552.41
2022-10-19T07:06:21.355Z,99552.78
2022-10-19T07:08:50.025Z,99555.13
2022-10-19T07:11:19.919Z,99553.53
2022-10-19T07:13:47.859Z,99558.66
2022-10-19T07:16:20.931Z,99559.75
2022-10-19T07:18:50.076Z,99550.59
2022-10-19T07:21:18.868Z,99545.16
2022-10-19T07:23:48.550Z,99552.19
2022-10-19T07:26:21.295Z,99551.16
2022-10-19T07:28:50.043Z,99557.03
2022-10-19T07:31:21.511Z,99556.34
2022-10-19T07:33:53.781Z,99562.66
2022-10-19T07:36:21.651Z,99550.50
2022-10-19T07:38:50.752Z,99557.59
2022-10-19T07:41:20.917Z,99564.22
2022-10-19T07:43:49.445Z,99565.31
2022-10-19T07:46:19.406Z,99560.19
2022-10-19T07:48:48.091Z,99560.28
2022-10-19T07:51:18.151Z,99556.59
2022-10-19T07:53:46.374Z,99560.38
2022-10-19T07:56:17.142Z,99565.72
2022-10-19T07:58:45.068Z,99571.25
2022-10-19T08:01:15.373Z,99564.81
2022-10-19T08:04:42.761Z,99569.13
2022-10-19T08:06:31.643Z,99559.19
2022-10-19T08:08:59.542Z,99559.00
2022-10-19T08:11:32.047Z,99560.72
2022-10-19T08:14:00.116Z,99567.34
2022-10-19T08:16:29.417Z,99569.31
2022-10-19T08:19:01.109Z,99570.72
2022-10-19T08:21:31.263Z,99562.28
2022-10-19T08:23:59.018Z,99564.38
2022-10-19T08:26:29.608Z,99559.69
2022-10-19T08:29:00.783Z,99558.25
2022-10-19T08:31:29.086Z,99560.88
2022-10-19T08:33:57.562Z,99551.03
2022-10-19T08:36:25.996Z,99553.31
2022-10-19T08:38:54.162Z,99548.25
2022-10-19T08:41:56.503Z,99556.06
2022-10-19T08:44:54.456Z,99551.88
2022-10-19T08:47:46.173Z,99556.84
2022-10-19T08:50:21.345Z,99562.00
2022-10-19T08:52:56.284Z,99562.28
2022-10-19T08:55:31.014Z,99562.16
2022-10-19T08:58:11.266Z,99551.50
2022-10-19T09:00:44.788Z,99556.41
2022-10-19T09:03:32.146Z,99557.38
2022-10-19T09:06:20.437Z,99553.06
2022-10-19T09:08:49.383Z,99561.63
2022-10-19T09:11:21.516Z,99550.50
2022-10-19T09:14:05.038Z,99551.94
2022-10-19T09:16:34.677Z,99543.16
2022-10-19T09:19:02.834Z,99541.50
2022-10-19T09:21:44.575Z,99538.41
2022-10-19T09:24:28.324Z,99544.41
2022-10-19T09:26:58.093Z,99545.31
2022-10-19T09:29:37.377Z,99541.34
2022-10-19T09:32:06.826Z,99544.75
2022-10-19T09:34:38.227Z,99538.97
2022-10-19T09:37:06.071Z,99530.72
2022-10-19T09:39:35.280Z,99537.50
2022-10-19T09:42:11.328Z,99535.78
2022-10-19T09:44:40.514Z,99542.16
2022-10-19T09:47:24.663Z,99538.31
2022-10-19T09:50:06.222Z,99541.72
2022-10-19T09:52:38.955Z,99547.03
2022-10-19T09:55:08.663Z,99537.94
2022-10-19T09:57:42.956Z,99543.47
2022-10-19T10:00:20.309Z,99537.25
2022-10-19T10:02:51.910Z,99537.09
2022-10-19T10:05:21.478Z,99544.41
2022-10-19T10:07:56.326Z,99544.56
2022-10-19T10:10:29.646Z,99536.84
2022-10-19T10:12:59.661Z,99527.81
2022-10-19T10:15:36.269Z,99531.59
2022-10-19T10:18:04.841Z,99524.59
2022-10-19T10:20:33.320Z,99527.81
2022-10-19T10:23:03.573Z,99528.03
2022-10-19T10:25:33.808Z,99526.06
2022-10-19T10:28:04.420Z,99530.06
2022-10-19T10:30:36.250Z,99520.88
2022-10-19T10:33:15.897Z,99528.25
2022-10-19T10:35:53.784Z,99527.13
2022-10-19T10:38:25.923Z,99522.28
2022-10-19T10:40:57.759Z,99509.94
2022-10-19T10:43:30.501Z,99510.19
2022-10-19T10:46:05.624Z,99498.13
2022-10-19T10:48:39.374Z,99501.56
2022-10-19T10:51:20.770Z,99496.88
2022-10-19T10:53:48.817Z,99499.28
2022-10-19T10:56:25.898Z,99494.03
2022-10-19T10:58:59.646Z,99495.84
2022-10-19T11:01:31.990Z,99494.38
2022-10-19T11:04:12.198Z,99487.00
2022-10-19T11:06:45.299Z,99488.41
2022-10-19T11:09:22.938Z,99479.75
2022-10-19T11:11:55.847Z,99487.78
2022-10-19T11:14:29.953Z,99481.38
2022-10-19T11:17:04.643Z,99484.66
2022-10-19T11:19:36.720Z,99476.78
2022-10-19T11:22:16.952Z,99467.63
2022-10-19T11:24:58.817Z,99460.63
2022-10-19T11:27:42.096Z,99460.31
2022-10-19T11:30:14.176Z,99455.59
2022-10-19T11:32:58.321Z,99456.16
2022-10-19T11:35:38.782Z,99448.97
2022-10-19T11:38:29.612Z,99443.75
2022-10-19T11:41:24.135Z,99429.41
2022-10-19T11:44:17.944Z,99429.34
2022-10-19T11:46:59.477Z,99422.47
2022-10-19T11:49:42.764Z,99422.53
2022-10-19T11:52:17.722Z,99401.03
2022-10-19T11:55:00.992Z,99403.63
2022-10-19T11:57:32.809Z,99405.66
2022-10-19T12:00:15.339Z,99401.53
2022-10-19T12:03:22.560Z,99403.28
2022-10-19T12:06:03.799Z,99399.34
2022-10-19T12:08:43.290Z,99387.94
2022-10-19T12:11:26.044Z,99385.25
2022-10-19T12:13:57.954Z,99386.91
2022-10-19T12:16:31.811Z,99386.72
2022-10-19T12:19:01.456Z,99386.81
2022-10-19T12:21:34.547Z,99383.19
2022-10-19T12:24:04.961Z,99374.81
2022-10-19T12:26:37.807Z,99379.50
2022-10-19T12:29:12.589Z,99378.88
2022-10-19T12:31:41.173Z,99378.31
2022-10-19T12:34:20.772Z,99369.66
2022-10-19T12:36:56.497Z,99360.28
2022-10-19T12:39:30.442Z,99363.28
2022-10-19T12:42:10.532Z,99365.16
2022-10-19T12:45:05.763Z,99360.91
2022-10-19T12:47:36.169Z,99355.81
2022-10-19T12:50:07.255Z,99354.28
2022-10-19T12:52:40.605Z,99343.50
2022-10-19T12:55:13.939Z,99338.78
2022-10-19T12:57:47.976Z,99342.53
2022-10-19T13:00:22.477Z,99344.91
2022-10-19T13:02:59.509Z,99337.69
2022-10-19T13:05:29.734Z,99337.59
2022-10-19T13:08:03.273Z,99326.31
2022-10-19T13:10:32.943Z,99328.03
2022-10-19T13:13:01.490Z,99324.00
2022-10-19T13:15:56.128Z,99321.13
2022-10-19T13:19:09.359Z,99318.63
2022-10-19T13:21:49.426Z,99317.75
2022-10-19T13:24:32.269Z,99318.63
2022-10-19T13:27:29.274Z,99314.78
2022-10-19T13:29:57.253Z,99311.75
2022-10-19T13:32:42.904Z,99307.19
2022-10-19T13:35:31.260Z,99304.03
2022-10-19T13:38:21.030Z,99297.75
2022-10-19T13:41:03.943Z,99292.41
2022-10-19T13:43:34.725Z,99300.28
2022-10-19T13:46:08.731Z,99295.06
2022-10-19T13:48:58.079Z,99295.56
2022-10-19T13:51:33.214Z,99295.03
2022-10-19T13:54:11.459Z,99288.44
2022-10-19T13:56:56.345Z,99278.75
2022-10-19T14:00:02.173Z,99285.50
2022-10-19T14:03:01.006Z,99282.09
2022-10-19T14:05:54.450Z,99274.69
2022-10-19T14:08:40.033Z,99265.00
2022-10-19T14:11:15.690Z,99256.06
2022-10-19T14:13:45.037Z,99255.88
2022-10-19T14:16:21.359Z,99241.78
2022-10-19T14:18:55.782Z,99260.38
2022-10-19T14:21:30.960Z,99250.56
2022-10-19T14:23:59.164Z,99244.59
2022-10-19T14:26:30.877Z,99237.56
2022-10-19T14:29:00.911Z,99236.19
2022-10-19T14:31:35.083Z,99234.34
2022-10-19T14:34:05.002Z,99234.84
2022-10-19T14:36:38.176Z,99227.97
2022-10-19T14:39:07.639Z,99225.38
2022-10-19T14:41:37.736Z,99225.38
2022-10-19T14:44:37.264Z,99237.88
2022-10-19T14:47:17.257Z,99228.97
2022-10-19T14:49:45.057Z,99226.78
2022-10-19T14:52:17.259Z,99230.19
2022-10-19T14:54:48.592Z,99230.56
2022-10-19T14:57:20.509Z,99228.03
2022-10-19T14:59:53.148Z,99227.91
2022-10-19T15:02:24.196Z,99228.25
2022-10-19T15:04:53.893Z,99220.69
2022-10-19T15:07:25.039Z,99225.84
2022-10-19T15:09:57.602Z,99227.06
2022-10-19T15:12:29.456Z,99223.09
2022-10-19T15:14:59.085Z,99226.03
2022-10-19T15:17:29.069Z,99219.09
2022-10-19T15:20:01.388Z,99214.59
2022-10-19T15:22:40.513Z,99207.88
2022-10-19T15:25:35.350Z,99214.38
2022-10-19T15:28:32.423Z,99211.13
2022-10-19T15:31:06.879Z,99215.94
2022-10-19T15:33:40.421Z,99216.03
2022-10-19T15:36:16.915Z,99212.34
2022-10-19T15:38:46.164Z,99213.84
2022-10-19T15:41:22.562Z,99205.66
2022-10-19T15:43:52.158Z,99202.09
2022-10-19T15:46:24.923Z,99209.25
2022-10-19T15:48:56.380Z,99199.91
2022-10-19T15:51:46.875Z,99201.56
2022-10-19T15:54:17.284Z,99196.09
2022-10-19T15:56:46.719Z,99209.97
2022-10-19T15:59:20.566Z,99200.31
2022-10-19T16:01:55.044Z,99197.22
2022-10-19T16:04:23.795Z,99201.50
2022-10-19T16:06:51.574Z,99198.63
2022-10-19T16:09:22.590Z,99186.94
2022-10-19T16:11:56.399Z,99192.06
2022-10-19T16:14:24.245Z,99188.09
2022-10-19T16:16:53.304Z,99186.44
2022-10-19T16:19:21.042Z,99186.41
2022-10-19T16:21:50.410Z,99187.28
2022-10-19T16:24:18.354Z,99184.09
2022-10-19T16:26:46.104Z,99186.09
2022-10-19T16:29:13.837Z,99187.91
2022-10-19T16:31:41.819Z,99189.78
2022-10-19T16:34:11.153Z,99185.53
2022-10-19T16:36:38.876Z,99183.34
2022-10-19T16:39:06.574Z,99183.97
2022-10-19T16:41:34.360Z,99180.13
2022-10-19T16:44:02.124Z,99187.53
2022-10-19T16:46:29.924Z,99188.16
2022-10-19T16:49:00.011Z,99188.03
2022-10-19T16:51:35.034Z,99181.84
2022-10-19T16:54:03.658Z,99182.44
2022-10-19T16:56:32.124Z,99189.56
2022-10-19T16:59:01.943Z,99185.41
2022-10-19T17:01:30.890Z,99188.88
2022-10-19T17:03:58.845Z,99186.84
2022-10-19T17:06:28.482Z,99190.09
2022-10-19T17:09:30.158Z,99187.34
2022-10-19T17:11:48.900Z,99194.19
2022-10-19T17:14:16.733Z,99189.19
2022-10-19T17:16:46.917Z,99188.09
2022-10-19T17:19:15.071Z,99187.28
2022-10-19T17:21:43.148Z,99184.09
2022-10-19T17:24:21.356Z,99190.19
2022-10-19T17:26:51.781Z,99192.53
2022-10-19T17:29:21.063Z,99180.91
2022-10-19T17:31:49.540Z,99184.19
2022-10-19T17:34:20.252Z,99183.44
2022-10-19T17:36:48.148Z,99187.09
2022-10-19T17:39:19.613Z,99187.00
2022-10-19T17:41:48.878Z,99184.19
2022-10-19T17:44:17.961Z,99183.34
2022-10-19T17:46:46.225Z,99177.94
2022-10-19T17:49:14.854Z,99184.34
2022-10-19T17:51:42.622Z,99190.63
2022-10-19T17:54:13.307Z,99189.50
2022-10-19T17:56:45.112Z,99193.31
2022-10-19T17:59:13.634Z,99189.50
2022-10-19T18:01:43.618Z,99199.13
2022-10-19T18:04:12.065Z,99196.34
2022-10-19T18:06:40.278Z,99198.78
2022-10-19T18:09:10.193Z,99201.47
2022-10-19T18:11:40.925Z,99193.19
2022-10-19T18:14:11.812Z,99200.81
2022-10-19T18:16:42.090Z,99207.00
2022-10-19T18:19:12.234Z,99210.09
2022-10-19T18:21:41.868Z,99209.50
2022-10-19T18:24:15.265Z,99205.47
2022-10-19T18:26:44.137Z,99194.81
2022-10-19T18:29:16.141Z,99195.34
2022-10-19T18:31:44.068Z,99195.78
2022-10-19T18:34:15.231Z,99193.97
2022-10-19T18:36:43.764Z,99193.66
2022-10-19T18:39:13.836Z,99187.28
2022-10-19T18:41:42.257Z,99180.69
2022-10-19T18:44:14.685Z,99177.75
2022-10-19T18:46:42.614Z,99182.72
2022-10-19T18:49:12.488Z,99179.59
2022-10-19T18:51:40.552Z,99182.16
2022-10-19T18:54:12.009Z,99183.41
2022-10-19T18:56:39.757Z,99186.91
2022-10-19T18:59:07.803Z,99183.53
2022-10-19T19:01:36.908Z,99176.81
2022-10-19T19:04:08.882Z,99171.88
2022-10-19T19:06:37.410Z,99174.59
2022-10-19T19:09:07.740Z,99169.19
2022-10-19T19:11:38.124Z,99165.28
2022-10-19T19:14:07.855Z,99170.75
2022-10-19T19:16:39.106Z,99163.59
2022-10-19T19:19:08.380Z,99168.38
2022-10-19T19:21:36.928Z,99158.97
2022-10-19T19:24:07.069Z,99172.16
2022-10-19T19:26:38.248Z,99161.75
2022-10-19T19:29:06.265Z,99165.88
2022-10-19T19:31:34.355Z,99156.16
2022-10-19T19:34:05.723Z,99160.50
2022-10-19T19:36:33.581Z,99161.72
2022-10-19T19:39:01.346Z,99159.06
2022-10-19T19:41:31.094Z,99163.72
2022-10-19T19:43:58.985Z,99161.22
2022-10-19T19:46:27.459Z,99164.25
2022-10-19T19:49:00.995Z,99160.13
2022-10-19T19:51:31.750Z,99153.75
2022-10-19T19:54:02.005Z,99156.72
2022-10-19T19:56:29.988Z,99149.75
2022-10-19T19:58:59.805Z,99147.38
2022-10-19T20:01:27.951Z,99140.94
2022-10-19T20:03:58.497Z,99138.66
2022-10-19T20:06:26.322Z,99141.84
2022-10-19T20:08:56.315Z,99131.50
2022-10-19T20:11:25.585Z,99137.88
2022-10-19T20:13:53.488Z,99125.94
2022-10-19T20:16:26.592Z,99131.53
2022-10-19T20:19:00.962Z,99135.47
2022-10-19T20:21:28.764Z,99134.78
2022-10-19T20:23:58.015Z,99132.31
2022-10-19T20:26:27.040Z,99126.75
2022-10-19T20:28:55.073Z,99120.03
2022-10-19T20:31:23.437Z,99121.31
2022-10-19T20:33:51.326Z,99123.47
2022-10-19T20:36:21.079Z,99119.09
2022-10-19T20:38:53.021Z,99119.63
2022-10-19T20:41:25.957Z,99117.44
2022-10-19T20:43:54.542Z,99120.47
2022-10-19T20:46:24.717Z,99119.50
2022-10-19T20:48:53.053Z,99111.03
2022-10-19T20:51:26.019Z,99113.97
2022-10-19T20:53:57.932Z,99110.91
2022-10-19T20:56:29.516Z,99111.03
2022-10-19T20:58:58.442Z,99110.38
2022-10-19T21:01:26.406Z,99116.91
2022-10-19T21:03:55.824Z,99108.34
2022-10-19T21:06:26.125Z,99120.75
2022-10-19T21:08:56.550Z,99121.38
2022-10-19T21:11:26.351Z,99123.16
2022-10-19T21:13:56.791Z,99111.63
2022-10-19T21:16:27.441Z,99112.47
2022-10-19T21:18:55.318Z,99112.69
2022-10-19T21:21:24.779Z,99114.88
2022-10-19T21:23:55.782Z,99119.25
2022-10-19T21:26:26.296Z,99116.84
2022-10-19T21:28:56.580Z,99111.72
2022-10-19T21:31:25.816Z,99108.53
2022-10-19T21:33:54.289Z,99112.03
2022-10-19T21:36:24.998Z,99117.75
2022-10-19T21:38:52.974Z,99113.53
2022-10-19T21:41:25.494Z,99111.81
2022-10-19T21:43:55.778Z,99107.41
2022-10-19T21:46:24.667Z,99111.78
2022-10-19T21:48:53.335Z,99106.63
2022-10-19T21:51:29.650Z,99096.50
2022-10-19T21:53:57.592Z,99094.50
2022-10-19T21:56:25.372Z,99088.19
2022-10-19T21:58:55.727Z,99095.34
2022-10-19T22:01:25.522Z,99091.25
2022-10-19T22:03:56.252Z,99086.63
2022-10-19T22:06:24.092Z,99081.22
2022-10-19T22:08:52.117Z,99074.56
2022-10-19T22:11:20.328Z,99071.44
2022-10-19T22:13:48.169Z,99070.47
2022-10-19T22:16:19.804Z,99075.97
2022-10-19T22:18:49.801Z,99077.28
2022-10-19T22:21:22.964Z,99077.00
2022-10-19T22:23:55.648Z,99078.06
2022-10-19T22:26:25.579Z,99077.44
2022-10-19T22:28:55.410Z,99083.50
2022-10-19T22:31:25.489Z,99072.22
2022-10-19T22:33:53.421Z,99085.16
2022-10-19T22:36:21.594Z,99089.00
2022-10-19T22:38:49.331Z,99083.22
2022-10-19T22:41:19.525Z,99076.50
2022-10-19T22:43:47.231Z,99080.94
2022-10-19T22:46:15.061Z,99079.88
2022-10-19T22:48:44.256Z,99075.03
2022-10-19T22:51:14.267Z,99067.03
2022-10-19T22:53:42.006Z,99061.00
2022-10-19T22:56:12.279Z,99061.75
2022-10-19T22:58:40.520Z,99050.25
2022-10-19T23:01:10.275Z,99052.63
2022-10-19T23:03:39.314Z,99043.69
2022-10-19T23:06:08.762Z,99041.31
2022-10-19T23:08:36.609Z,99047.06
2022-10-19T23:11:04.699Z,99034.06
2022-10-19T23:13:35.205Z,99030.84
2022-10-19T23:16:03.807Z,99027.69
2022-10-19T23:18:31.761Z,99034.38
2022-10-19T23:21:01.464Z,99027.16
2022-10-19T23:23:32.166Z,99026.94
2022-10-19T23:26:04.824Z,99010.81
2022-10-19T23:28:33.877Z,99015.28
2022-10-19T23:31:05.661Z,99012.16
2022-10-19T23:33:33.929Z,99009.94
2022-10-19T23:36:06.775Z,99005.25
2022-10-19T23:38:36.054Z,99000.50
2022-10-19T23:41:03.971Z,99005.34
2022-10-19T23:43:32.131Z,99003.09
2022-10-19T23:46:02.123Z,99003.34
2022-10-19T23:48:30.042Z,99009.34
2022-10-19T23:50:59.169Z,99006.66
2022-10-19T23:53:27.486Z,99012.28
2022-10-19T23:56:00.695Z,99004.56
2022-10-19T23:58:29.130Z,99003.78
